Home > Products > Valid Products > MTR

000
SAUS43 KDTX 280753
MTRP58
METAR KP58 280751Z AUTO 29008KT M07/M14 A3027 RMK AO1 SLP267
T10721139





000
SAUS43 KDTX 280652
MTRP58
METAR KP58 280651Z AUTO 27007G15KT M07/M14 A3026 RMK AO1 SLP263
T10721139





000
SAUS43 KDTX 280554
MTRP58
METAR KP58 280551Z AUTO 30012G19KT M07/M13 A3025 RMK AO1 SLP259
T10671133 11033 21067 50002





000
SAUS43 KDTX 280454
MTRP58
METAR KP58 280451Z AUTO 29009G18KT M07/M14 A3026 RMK AO1 SLP260
T10671139 400001067





000
SAUS43 KDTX 280352
MTRP58
METAR KP58 280351Z AUTO 29009G15KT M06/M13 A3026 RMK AO1 SLP260
T10611133





000
SAUS43 KDTX 280352
MTRP58
METAR KP58 280351Z AUTO 29009G15KT M06/M13 A3026 RMK AO1 SLP260
T10611133





000
SAUS43 KDTX 280254
MTRP58
METAR KP58 280251Z AUTO 29011G20KT M06/M13 A3025 RMK AO1 SLP257
T10561128 51012





000
SAUS43 KDTX 280154
MTRP58
METAR KP58 280151Z AUTO 30012G20KT M05/M12 A3024 RMK AO1 SLP255
T10501122





000
SAUS43 KDTX 280154
MTRP58
METAR KP58 280151Z AUTO 30012G20KT M05/M12 A3024 RMK AO1 SLP255
T10501122





000
SAUS43 KDTX 280053
MTRP58
METAR KP58 280051Z AUTO 30012G23KT M04/M12 A3023 RMK AO1 SLP252
T10441117





000
SAUS43 KDTX 272357 COR
MTRP58
METAR KP58 272351Z AUTO 30014G24KT M03/M09 A3021 RMK AO1 SLP243
60001 T10331094 11011 21033 53017





000
SAUS43 KDTX 272354 COR
MTRP58
METAR KP58 272351Z AUTO 30014G24KT M03/M09 A3021 RMK AO1 SLP243
60001 T10331094 11011 21033 53017





000
SAUS43 KDTX 272254
MTRP58
METAR KP58 272251Z AUTO 30012G24KT M03/M10 A3019 RMK AO1 SLP236
T10281100





000
SAUS43 KDTX 272153
MTRP58
METAR KP58 272151Z AUTO 30011G17KT M03/M08 A3017 RMK AO1 SLP230
T10281083





000
SAUS43 KDTX 272054
MTRP58
METAR KP58 272051Z AUTO 32009G20KT M02/M06 A3016 RMK AO1 SLP225
60001 T10221061 53024





000
SAUS43 KDTX 271954
MTRP58
METAR KP58 271951Z AUTO 31010KT M02/M06 A3013 RMK AO1 SLP216 P0001
T10221056





000
SAUS43 KDTX 271854
MTRP58
METAR KP58 271851Z AUTO 32009G21KT M02/M04 A3011 RMK AO1 SLP208
T10221044





000
SAUS43 KDTX 271754 COR
MTRP58
METAR KP58 271751Z AUTO 32012G21KT M01/M04 A3009 RMK AO1 SLP201
60008 T10111039 11006 21011 51010





000
SAUS43 KDTX 271653
MTRP58
METAR KP58 271651Z AUTO 32013G20KT M01/M03 A3009 RMK AO1 SLP200
T10061028





000
SAUS43 KDTX 271557 COR
MTRP58
METAR KP58 271551Z AUTO 32013G21KT M01/M02 A3008 RMK AO1 SLP196
P0001 T10061022





000
SAUS43 KDTX 271555 COR
MTRP58
METAR KP58 271551Z AUTO 32013G21KT M01/M02 A3008 RMK AO1 SLP196
P0001 T10061022





000
SAUS43 KDTX 271457 COR
MTRP58
METAR KP58 271451Z AUTO 30013G25KT M01/M03 A3006 RMK AO1 SLP191
P0005 60007 T10111028 51003





000
SAUS43 KDTX 271455 COR
MTRP58
METAR KP58 271451Z AUTO 30013G25KT M01/M03 A3006 RMK AO1 SLP191
P0005 60007 T10111028 51003





000
SAUS43 KDTX 271454 COR
MTRP58
METAR KP58 271451Z AUTO 30013G25KT M01/M03 A3006 RMK AO1 SLP191
P0005 60007 T10111028 51003





000
SAUS43 KDTX 271354
MTRP58
METAR KP58 271351Z AUTO 30014G21KT M01/M02 A3006 RMK AO1 SLP191
P0002 T10111022





000
SAUS43 KDTX 271254
MTRP58
METAR KP58 271251Z AUTO 28008KT M01/M05 A3006 RMK AO1 SLP191
T10111050





000
SAUS43 KDTX 271154
MTRP58
METAR KP58 271151Z AUTO 29007KT M01/M04 A3005 RMK AO1 SLP188
T10061044 10000 21006





000
SAUS43 KDTX 271054
MTRP58
METAR KP58 271051Z AUTO 30006KT M01/M04 A3005 RMK AO1 SLP189
T10061044





000
SAUS43 KDTX 270954
MTRP58
METAR KP58 270951Z AUTO 29006KT M01/M05 A3005 RMK AO1 SLP187
T10061050





000
SAUS43 KDTX 270954
MTRP58
METAR KP58 270951Z AUTO 29006KT M01/M05 A3005 RMK AO1 SLP187
T10061050





000
SAUS43 KDTX 270753
MTRP58
METAR KP58 270751Z AUTO 29007KT M01/M05 A3006 RMK AO1 SLP190
T10061050





000
SAUS43 KDTX 270654
MTRP58
METAR KP58 270651Z AUTO 30005KT 00/M05 A3006 RMK AO1 SLP190
T00001050





000
SAUS43 KDTX 270554
MTRP58
METAR KP58 270551Z AUTO 27004KT M01/M04 A3007 RMK AO1 SLP192
T10061039 10000 21006 58001





000
SAUS43 KDTX 270454
MTRP58
METAR KP58 270451Z AUTO 25004KT M01/M04 A3007 RMK AO1 SLP194
T10061039 400061011





000
SAUS43 KDTX 270454
MTRP58
METAR KP58 270451Z AUTO 25004KT M01/M04 A3007 RMK AO1 SLP194
T10061039 400061011





000
SAUS43 KDTX 270354
MTRP58
METAR KP58 270351Z AUTO 30007KT 00/M03 A3007 RMK AO1 SLP192
T00001028





000
SAUS43 KDTX 270354
MTRP58
METAR KP58 270351Z AUTO 30007KT 00/M03 A3007 RMK AO1 SLP192
T00001028





000
SAUS43 KDTX 270253
MTRP58
METAR KP58 270251Z AUTO 31006KT 00/M03 A3007 RMK AO1 SLP193
T00001028 56012





000
SAUS43 KDTX 270154
MTRP58
METAR KP58 270151Z AUTO 32006KT 00/M03 A3008 RMK AO1 SLP196
T00001028





000
SAUS43 KDTX 270054
MTRP58
METAR KP58 270051Z AUTO 29006KT M01/M02 A3009 RMK AO1 SLP202
T10061022





000
SAUS43 KDTX 262354 COR
MTRP58
METAR KP58 262351Z AUTO 29008KT M01/M02 A3011 RMK AO1 SLP206
T10061022 10006 21006 58003





000
SAUS43 KDTX 262257 COR
MTRP58
METAR KP58 262251Z AUTO 28004KT M01/M02 A3011 RMK AO1 SLP210
T10061022





000
SAUS43 KDTX 262254 COR
MTRP58
METAR KP58 262251Z AUTO 28004KT M01/M02 A3011 RMK AO1 SLP210
T10061022





000
SAUS43 KDTX 262154
MTRP58
METAR KP58 262151Z AUTO 30006KT 00/M02 A3011 RMK AO1 SLP207
T00001022





000
SAUS43 KDTX 262154
MTRP58
METAR KP58 262151Z AUTO 30006KT 00/M02 A3011 RMK AO1 SLP207
T00001022





000
SAUS43 KDTX 262054
MTRP58
METAR KP58 262051Z AUTO 29004KT 00/M03 A3012 RMK AO1 SLP209
T00001033 55000





000
SAUS43 KDTX 261954
MTRP58
METAR KP58 261951Z AUTO 28003KT 01/M04 A3011 RMK AO1 SLP208
T00061044





000
SAUS43 KDTX 261852
MTRP58
METAR KP58 261851Z AUTO 29004KT 01/M04 A3011 RMK AO1 SLP207
T00061044





000
SAUS43 KDTX 261754
MTRP58
METAR KP58 261751Z AUTO 29004KT 00/M05 A3012 RMK AO1 SLP209
T00001050 10000 21011 58020





000
SAUS43 KDTX 261652
MTRP58
METAR KP58 261651Z AUTO 29003KT 00/M06 A3014 RMK AO1 SLP217
T00001056





000
SAUS43 KDTX 261557 COR
MTRP58
METAR KP58 261551Z AUTO 26003KT 00/M06 A3016 RMK AO1 SLP223
T00001056





000
SAUS43 KDTX 261554 COR
MTRP58
METAR KP58 261551Z AUTO 26003KT 00/M06 A3016 RMK AO1 SLP223
T00001056





000
SAUS43 KDTX 261452
MTRP58
METAR KP58 261451Z AUTO 26004KT M01/M06 A3017 RMK AO1 SLP229
T10061056 56001





000
SAUS43 KDTX 261352
MTRP58
METAR KP58 261351Z AUTO 22003KT M01/M06 A3018 RMK AO1 SLP230
T10061056 $





000
SAUS43 KDTX 261252
MTRP58
METAR KP58 261251Z AUTO 00000KT M01/M06 A3017 RMK AO1 SLP227
T10111061 $





000
SAUS43 KDTX 261154
MTRP58
METAR KP58 261151Z AUTO VRB04KT M01/M07 A3018 RMK AO1 SLP229
T10111067 11006 21011 55002 $





000
SAUS43 KDTX 261052
MTRP58
METAR KP58 261051Z AUTO 00000KT M01/M07 A3017 RMK AO1 SLP227
T10061067 $





000
SAUS43 KDTX 260952
MTRP58
METAR KP58 260951Z AUTO 23004KT M01/M07 A3017 RMK AO1 SLP227
T10111067 $





000
SAUS43 KDTX 260952
MTRP58
METAR KP58 260951Z AUTO 23004KT M01/M07 A3017 RMK AO1 SLP227
T10111067 $





000
SAUS43 KDTX 260854
MTRP58
METAR KP58 260851Z AUTO VRB03KT M01/M07 A3018 RMK AO1 SLP232
T10061067 51001 $





000
SAUS43 KDTX 260753
MTRP58
METAR KP58 260751Z AUTO 31004KT M01/M06 A3018 RMK AO1 SLP232
T10061061 $





000
SAUS43 KDTX 260654
MTRP58
METAR KP58 260651Z AUTO 22004KT M01/M06 A3019 RMK AO1 SLP234
T10061056 $





000
SAUS43 KDTX 260556 COR
MTRP58
METAR KP58 260551Z AUTO VRB03KT M01/M04 A3018 RMK AO1 SLP230
T10061044 10006 21006 51017 $





000
SAUS43 KDTX 260553 COR
MTRP58
METAR KP58 260551Z AUTO VRB03KT M01/M04 A3018 RMK AO1 SLP230
T10061044 10006 21006 51017 $





000
SAUS43 KDTX 260453
MTRP58
METAR KP58 260451Z AUTO VRB03KT M01/M05 A3017 RMK AO1 SLP227
T10061050 400171006 $





000
SAUS43 KDTX 260354
MTRP58
METAR KP58 260351Z AUTO 25006KT 00/M04 A3016 RMK AO1 SLP224
T00001044 $





000
SAUS43 KDTX 260354
MTRP58
METAR KP58 260351Z AUTO 25006KT 00/M04 A3016 RMK AO1 SLP224
T00001044 $





000
SAUS43 KDTX 260254
MTRP58
METAR KP58 260251Z AUTO 28005KT 00/M04 A3013 RMK AO1 SLP213
T00001044 51022 $





000
SAUS43 KDTX 260157 COR
MTRP58
METAR KP58 260151Z AUTO 25004KT 01/M05 A3011 RMK AO1 SLP208
T00061050 $





000
SAUS43 KDTX 260154 COR
MTRP58
METAR KP58 260151Z AUTO 25004KT 01/M05 A3011 RMK AO1 SLP208
T00061050 $





000
SAUS43 KDTX 260054
MTRP58
METAR KP58 260051Z AUTO VRB06KT 01/M05 A3009 RMK AO1 SLP201
T00061050 $





000
SAUS43 KDTX 252352
MTRP58
METAR KP58 252351Z AUTO 26005KT 01/M06 A3006 RMK AO1 SLP191
T00061056 10017 20006 $





000
SAUS43 KDTX 252254
MTRP58
METAR KP58 252251Z AUTO 26007KT 01/M05 A3004 RMK AO1 SLP184
T00061050





000
SAUS43 KDTX 252152
MTRP58
METAR KP58 252151Z AUTO 26008G14KT 01/M05 A3001 RMK AO1 SLP174
T00061050





000
SAUS43 KDTX 252152
MTRP58
METAR KP58 252151Z AUTO 26008G14KT 01/M05 A3001 RMK AO1 SLP174
T00061050





000
SAUS43 KDTX 252054 COR
MTRP58
METAR KP58 252051Z AUTO 27008G16KT 240V310 01/M04 A2997 RMK AO1
SLP159 T00111044 53034





000
SAUS43 KDTX 251954
MTRP58
METAR KP58 251951Z AUTO 26007G18KT 220V280 01/M04 A2993 RMK AO1
SLP146 T00111039





000
SAUS43 KDTX 251852
MTRP58
METAR KP58 251851Z AUTO 26008G20KT 220V310 01/M04 A2990 RMK AO1
SLP134 T00061039





000
SAUS43 KDTX 251752
MTRP58
METAR KP58 251751Z AUTO 25013G26KT 01/M04 A2987 RMK AO1 PK WND
25026/1747 SLP125 T00111044 10011 21006 51024





000
SAUS43 KDTX 251653
MTRP58
METAR KP58 251651Z AUTO 25015G21KT 01/M04 A2986 RMK AO1 SLP120
T00061044





000
SAUS43 KDTX 251653
MTRP58
METAR KP58 251651Z AUTO 25015G21KT 01/M04 A2986 RMK AO1 SLP120
T00061044





000
SAUS43 KDTX 251554
MTRP58
METAR KP58 251551Z AUTO 25009G18KT 01/M04 A2983 RMK AO1 SLP112
T00061044





000
SAUS43 KDTX 251454
MTRP58
METAR KP58 251451Z AUTO 25013G21KT 01/M04 A2980 RMK AO1 SLP100
T00061044 51027





000
SAUS43 KDTX 251356 COR
MTRP58
METAR KP58 251351Z AUTO 24011G19KT 00/M04 A2978 RMK AO1 SLP092
T00001039





000
SAUS43 KDTX 251353 COR
MTRP58
METAR KP58 251351Z AUTO 24011G19KT 00/M04 A2978 RMK AO1 SLP092
T00001039





000
SAUS43 KDTX 251257 COR
MTRP58
METAR KP58 251251Z AUTO 24009G20KT 00/M04 A2975 RMK AO1 SLP082
T00001039





000
SAUS43 KDTX 251254 COR
MTRP58
METAR KP58 251251Z AUTO 24009G20KT 00/M04 A2975 RMK AO1 SLP082
T00001039





000
SAUS43 KDTX 251154
MTRP58
METAR KP58 251151Z AUTO 23012G20KT 00/M04 A2972 RMK AO1 SLP072 70053
T00001039 10011 20000 53028





000
SAUS43 KDTX 251054
MTRP58
METAR KP58 251051Z AUTO 24012G24KT 00/M04 A2969 RMK AO1 SLP062
T00001044





000
SAUS43 KDTX 251054
MTRP58
METAR KP58 251051Z AUTO 24012G24KT 00/M04 A2969 RMK AO1 SLP062
T00001044





000
SAUS43 KDTX 250953
MTRP58
METAR KP58 250951Z AUTO 23015G25KT 01/M04 A2966 RMK AO1 PK WND
24027/0939 SLP052 T00061044





000
SAUS43 KDTX 250853
MTRP58
METAR KP58 250851Z AUTO 23010G21KT 01/M03 A2963 RMK AO1 PK WND
24029/0818 SLP041 T00061033 53026





    US Dept of Commerce
    National Oceanic and Atmospheric Administration
    National Weather Service
    1325 East West Highway
    Silver Spring, MD 20910
    Page Author: NWS Internet Services Team
Disclaimer
Information Quality
Credits
Glossary
Privacy Policy
Freedom of Information Act (FOIA)
About Us
Career Opportunities